Time;durP1;ratioP1;P1;durP2;ratioP2;P2;SDS_P1;SDS_P2;PMS_P1;PMS_P2;Temp;Humidity;BMP_temperature;BMP_pressure;BME280_temperature;BME280_humidity;BME280_pressure;Samples;Min_cycle;Max_cycle;Signal;HPM_P1;HPM_P2
2022/07/16 00:03:15;;;;;;;4.93;2.25;;;;;;;;;;4993862;28;20556;-72
2022/07/16 00:05:40;;;;;;;9.25;2.60;;;;;;;;;;4992373;28;20121;-74
2022/07/16 00:08:05;;;;;;;7.05;2.22;;;;;;;;;;4992639;28;20022;-72
2022/07/16 00:10:31;;;;;;;4.22;2.20;;;;;;;;;;4993281;28;20025;-72
2022/07/16 00:12:56;;;;;;;5.20;2.22;;;;;;;;;;4993066;28;20521;-74
2022/07/16 00:15:22;;;;;;;4.22;2.10;;;;;;;;;;4993044;28;20121;-72
2022/07/16 00:17:47;;;;;;;3.65;2.10;;;;;;;;;;4975538;28;20125;-73
2022/07/16 00:20:13;;;;;;;6.03;2.30;;;;;;;;;;4993304;28;20109;-73
2022/07/16 00:22:38;;;;;;;5.30;2.47;;;;;;;;;;4992770;28;20076;-73
2022/07/16 00:25:05;;;;;;;4.00;2.20;;;;;;;;;;4993025;28;20141;-73
2022/07/16 00:27:30;;;;;;;3.50;2.42;;;;;;;;;;4992742;28;20038;-76
2022/07/16 00:29:57;;;;;;;2.78;2.10;;;;;;;;;;4992975;28;20022;-72
2022/07/16 00:32:22;;;;;;;4.35;2.40;;;;;;;;;;4992686;28;20030;-72
2022/07/16 00:34:48;;;;;;;4.35;2.28;;;;;;;;;;4992789;28;20034;-72
2022/07/16 00:37:13;;;;;;;5.75;2.40;;;;;;;;;;4992566;28;20022;-72
2022/07/16 00:39:38;;;;;;;4.53;2.20;;;;;;;;;;4993047;28;20054;-72
2022/07/16 00:42:04;;;;;;;6.30;2.50;;;;;;;;;;4992500;28;20053;-73
2022/07/16 00:44:29;;;;;;;4.45;2.20;;;;;;;;;;4992677;28;20084;-73
2022/07/16 00:46:55;;;;;;;6.15;2.03;;;;;;;;;;4992227;28;20022;-73
2022/07/16 00:49:21;;;;;;;3.72;2.20;;;;;;;;;;4992574;28;20030;-72
2022/07/16 00:51:49;;;;;;;4.50;2.38;;;;;;;;;;4992218;28;20037;-74
2022/07/16 00:54:15;;;;;;;3.88;2.10;;;;;;;;;;4992493;28;20105;-73
2022/07/16 00:56:41;;;;;;;5.10;2.13;;;;;;;;;;4991952;28;20113;-73
2022/07/16 00:59:07;;;;;;;3.28;2.28;;;;;;;;;;4992430;28;20050;-73
2022/07/16 01:01:32;;;;;;;4.93;2.40;;;;;;;;;;4992280;28;20738;-74
2022/07/16 01:03:58;;;;;;;4.80;2.40;;;;;;;;;;4992277;28;20125;-72
2022/07/16 01:06:23;;;;;;;4.85;2.47;;;;;;;;;;4991984;28;20034;-73
2022/07/16 01:08:49;;;;;;;7.80;2.45;;;;;;;;;;4991980;28;20106;-73
2022/07/16 01:11:18;;;;;;;6.80;2.55;;;;;;;;;;4992311;28;20061;-73
2022/07/16 01:13:45;;;;;;;4.32;2.70;;;;;;;;;;4991856;28;20092;-73
2022/07/16 01:16:12;;;;;;;5.47;3.05;;;;;;;;;;4992063;28;20064;-72
2022/07/16 01:18:38;;;;;;;4.53;3.10;;;;;;;;;;4991613;28;20027;-72
2022/07/16 01:21:04;;;;;;;6.32;3.47;;;;;;;;;;4991845;28;20065;-73
2022/07/16 01:23:29;;;;;;;6.25;3.70;;;;;;;;;;4991599;28;20061;-76
2022/07/16 01:25:55;;;;;;;5.95;4.00;;;;;;;;;;4991863;28;20110;-75
2022/07/16 01:28:21;;;;;;;9.05;4.35;;;;;;;;;;4991802;28;20491;-75
2022/07/16 01:30:48;;;;;;;8.63;4.50;;;;;;;;;;4992044;28;20029;-76
2022/07/16 01:33:32;;;;;;;8.23;4.80;;;;;;;;;;4991705;28;20026;-75
2022/07/16 01:36:15;;;;;;;9.30;5.22;;;;;;;;;;4991703;28;20027;-75
2022/07/16 01:38:43;;;;;;;8.32;5.05;;;;;;;;;;4991322;28;20033;-76
2022/07/16 01:41:10;;;;;;;10.15;5.30;;;;;;;;;;4991573;28;20026;-76
2022/07/16 01:43:36;;;;;;;7.85;5.10;;;;;;;;;;4991238;28;20041;-75
2022/07/16 01:46:02;;;;;;;6.00;4.93;;;;;;;;;;4991506;28;20030;-75
2022/07/16 01:48:29;;;;;;;7.78;5.15;;;;;;;;;;4991251;28;20022;-75
2022/07/16 01:50:55;;;;;;;8.65;4.97;;;;;;;;;;4991574;28;20054;-76
2022/07/16 01:53:21;;;;;;;7.07;4.80;;;;;;;;;;4991165;28;20109;-75
2022/07/16 01:55:47;;;;;;;6.80;4.95;;;;;;;;;;4991044;28;20018;-78
2022/07/16 01:58:13;;;;;;;6.28;5.00;;;;;;;;;;4990730;28;20455;-80
2022/07/16 02:00:41;;;;;;;6.28;4.70;;;;;;;;;;4973659;28;20033;-78
2022/07/16 02:03:07;;;;;;;7.50;5.10;;;;;;;;;;4991076;28;20096;-78
2022/07/16 02:05:33;;;;;;;8.90;5.50;;;;;;;;;;4991218;28;20503;-78
2022/07/16 02:07:58;;;;;;;11.00;5.95;;;;;;;;;;4990889;28;20077;-78
2022/07/16 02:10:24;;;;;;;7.78;5.95;;;;;;;;;;4991252;28;20022;-79
2022/07/16 02:12:50;;;;;;;9.05;5.72;;;;;;;;;;4990855;28;20622;-79
2022/07/16 02:15:15;;;;;;;11.98;6.30;;;;;;;;;;4990849;28;20030;-79
2022/07/16 02:17:41;;;;;;;8.63;6.07;;;;;;;;;;4990859;28;20786;-78
2022/07/16 02:20:08;;;;;;;8.00;6.55;;;;;;;;;;4990889;28;20022;-79
2022/07/16 02:22:34;;;;;;;9.85;6.40;;;;;;;;;;4990677;28;20089;-79
2022/07/16 02:25:01;;;;;;;9.45;6.03;;;;;;;;;;4991300;28;20403;-76
2022/07/16 02:27:26;;;;;;;7.82;6.03;;;;;;;;;;4990708;28;20037;-76
2022/07/16 02:29:51;;;;;;;7.85;6.07;;;;;;;;;;4990288;28;20109;-76
2022/07/16 02:32:17;;;;;;;9.48;6.45;;;;;;;;;;4990889;28;20022;-76
2022/07/16 02:34:42;;;;;;;7.63;5.97;;;;;;;;;;4990568;28;20461;-75
2022/07/16 02:37:08;;;;;;;10.50;6.15;;;;;;;;;;4990477;28;20026;-75
2022/07/16 02:39:33;;;;;;;8.48;6.40;;;;;;;;;;4990529;28;20110;-73
2022/07/16 02:41:59;;;;;;;8.05;5.90;;;;;;;;;;4990936;28;20018;-76
2022/07/16 02:44:25;;;;;;;7.13;6.20;;;;;;;;;;4990636;28;20101;-75
2022/07/16 02:46:51;;;;;;;8.43;6.43;;;;;;;;;;4990701;28;20098;-75
2022/07/16 02:49:16;;;;;;;8.93;6.45;;;;;;;;;;4990508;28;20030;-77
2022/07/16 02:51:41;;;;;;;7.55;6.32;;;;;;;;;;4990668;28;20033;-78
2022/07/16 02:54:07;;;;;;;11.20;6.50;;;;;;;;;;4990201;28;20034;-78
2022/07/16 02:56:32;;;;;;;8.95;6.28;;;;;;;;;;4990339;28;20105;-76
2022/07/16 02:58:58;;;;;;;12.82;7.05;;;;;;;;;;4990350;28;20529;-75
2022/07/16 03:01:23;;;;;;;11.30;6.90;;;;;;;;;;4990939;28;20026;-76
2022/07/16 03:03:49;;;;;;;10.82;8.27;;;;;;;;;;4990457;28;20033;-75
2022/07/16 03:06:14;;;;;;;12.25;8.43;;;;;;;;;;4990446;28;20101;-75
2022/07/16 03:08:40;;;;;;;13.38;8.98;;;;;;;;;;4990108;28;20030;-75
2022/07/16 03:11:05;;;;;;;10.82;8.95;;;;;;;;;;4990209;28;20019;-77
2022/07/16 03:13:30;;;;;;;12.75;9.18;;;;;;;;;;4990131;28;20415;-78
2022/07/16 03:15:59;;;;;;;12.55;9.13;;;;;;;;;;4990736;28;20093;-77
2022/07/16 03:18:24;;;;;;;13.55;9.35;;;;;;;;;;4990307;28;20073;-76
2022/07/16 03:20:50;;;;;;;13.43;9.00;;;;;;;;;;4990521;28;20030;-75
2022/07/16 03:23:15;;;;;;;16.58;9.10;;;;;;;;;;4990088;28;20050;-76
2022/07/16 03:25:41;;;;;;;14.93;8.88;;;;;;;;;;4990028;28;20053;-75
2022/07/16 03:28:08;;;;;;;12.13;8.43;;;;;;;;;;4989984;28;20033;-76
2022/07/16 03:30:35;;;;;;;13.00;8.60;;;;;;;;;;4990171;28;20069;-75
2022/07/16 03:33:01;;;;;;;11.38;8.35;;;;;;;;;;4990278;28;20030;-75
2022/07/16 03:35:26;;;;;;;11.40;8.00;;;;;;;;;;4972596;28;20038;-76
2022/07/16 03:40:36;;;;;;;9.23;7.80;;;;;;;;;;4991076;28;20081;-74
2022/07/16 03:43:02;;;;;;;11.85;8.15;;;;;;;;;;4976424;28;20030;-73
2022/07/16 03:45:27;;;;;;;11.35;8.15;;;;;;;;;;4993452;28;20042;-72
2022/07/16 03:47:53;;;;;;;8.70;7.63;;;;;;;;;;4993552;28;20406;-75
2022/07/16 03:50:18;;;;;;;10.68;7.63;;;;;;;;;;4993617;28;20029;-75
2022/07/16 03:52:44;;;;;;;10.70;7.82;;;;;;;;;;4993713;28;20026;-76
2022/07/16 03:55:11;;;;;;;11.30;7.55;;;;;;;;;;4993391;28;20042;-75
2022/07/16 03:57:36;;;;;;;9.77;7.70;;;;;;;;;;4993274;28;20569;-76
2022/07/16 04:00:03;;;;;;;9.57;7.53;;;;;;;;;;4993355;28;20617;-72
2022/07/16 04:02:29;;;;;;;9.75;7.47;;;;;;;;;;4993472;28;20069;-76
2022/07/16 04:04:54;;;;;;;10.60;8.20;;;;;;;;;;4993193;28;20014;-75
2022/07/16 04:07:19;;;;;;;8.43;7.47;;;;;;;;;;4993160;28;20022;-76
2022/07/16 04:09:45;;;;;;;11.43;7.78;;;;;;;;;;4993294;28;20072;-77
2022/07/16 04:12:10;;;;;;;10.23;7.93;;;;;;;;;;4993378;28;20030;-74
2022/07/16 04:14:36;;;;;;;13.00;7.95;;;;;;;;;;4993110;28;20486;-76
2022/07/16 04:17:01;;;;;;;11.80;7.72;;;;;;;;;;4993263;28;20027;-76
2022/07/16 04:19:26;;;;;;;10.07;7.82;;;;;;;;;;4992904;28;20057;-73
2022/07/16 04:21:52;;;;;;;10.50;7.28;;;;;;;;;;4992934;28;20030;-75
2022/07/16 04:24:17;;;;;;;9.80;7.72;;;;;;;;;;4992734;28;20026;-77
2022/07/16 04:26:42;;;;;;;11.90;8.60;;;;;;;;;;4992841;28;20053;-76
2022/07/16 04:29:08;;;;;;;10.10;8.10;;;;;;;;;;4992969;28;20030;-76
2022/07/16 04:31:33;;;;;;;9.93;8.00;;;;;;;;;;4993073;28;20371;-76
2022/07/16 04:33:59;;;;;;;10.90;8.45;;;;;;;;;;4975145;28;20045;-74
2022/07/16 04:36:24;;;;;;;12.63;8.82;;;;;;;;;;4992666;28;20030;-76
2022/07/16 04:38:49;;;;;;;13.18;8.30;;;;;;;;;;4992567;28;20022;-74
2022/07/16 04:41:15;;;;;;;10.73;8.60;;;;;;;;;;4992609;28;20030;-74
2022/07/16 04:43:40;;;;;;;12.95;8.75;;;;;;;;;;4975336;28;20034;-75
2022/07/16 04:46:06;;;;;;;10.45;8.30;;;;;;;;;;4992366;28;20031;-74
2022/07/16 04:48:31;;;;;;;10.95;8.02;;;;;;;;;;4992816;28;20030;-72
2022/07/16 04:50:56;;;;;;;11.63;7.93;;;;;;;;;;4992634;28;20453;-73
2022/07/16 04:53:22;;;;;;;11.50;7.78;;;;;;;;;;4991806;28;20050;-73
2022/07/16 04:55:47;;;;;;;10.30;7.13;;;;;;;;;;4992208;28;20073;-76
2022/07/16 04:58:14;;;;;;;10.32;4.15;;;;;;;;;;4991919;28;20482;-73
2022/07/16 05:00:39;;;;;;;7.93;3.30;;;;;;;;;;4992372;28;20030;-74
2022/07/16 05:03:06;;;;;;;4.38;2.97;;;;;;;;;;4992499;28;20119;-75
2022/07/16 05:05:35;;;;;;;6.22;2.90;;;;;;;;;;4992153;28;20050;-75
2022/07/16 05:08:03;;;;;;;3.50;2.60;;;;;;;;;;4992164;28;20046;-76
2022/07/16 05:10:29;;;;;;;4.55;2.80;;;;;;;;;;4991990;28;20038;-73
2022/07/16 05:12:55;;;;;;;6.90;2.80;;;;;;;;;;4992095;28;20428;-71
2022/07/16 05:15:21;;;;;;;4.47;2.78;;;;;;;;;;4991814;28;20030;-74
2022/07/16 05:17:47;;;;;;;7.28;2.78;;;;;;;;;;4991986;28;20080;-75
2022/07/16 05:20:13;;;;;;;6.85;3.10;;;;;;;;;;4991746;28;20029;-72
2022/07/16 05:22:39;;;;;;;5.80;3.22;;;;;;;;;;4991994;28;20026;-76
2022/07/16 05:25:06;;;;;;;9.90;3.60;;;;;;;;;;4992054;28;20044;-74
2022/07/16 05:27:32;;;;;;;5.97;3.30;;;;;;;;;;4991813;28;20517;-74
2022/07/16 05:29:57;;;;;;;5.07;3.25;;;;;;;;;;4974108;28;20101;-74
2022/07/16 05:32:23;;;;;;;10.88;3.60;;;;;;;;;;4991786;28;20030;-76
2022/07/16 05:34:51;;;;;;;6.80;3.75;;;;;;;;;;4991360;28;20406;-75
2022/07/16 05:37:16;;;;;;;5.63;3.20;;;;;;;;;;4991418;28;20034;-75
2022/07/16 05:39:42;;;;;;;5.70;3.20;;;;;;;;;;4991628;28;20085;-76
2022/07/16 05:42:07;;;;;;;6.03;3.58;;;;;;;;;;4991791;28;20081;-75
2022/07/16 05:44:33;;;;;;;3.80;3.03;;;;;;;;;;4991639;28;20080;-74
2022/07/16 05:46:58;;;;;;;8.05;3.30;;;;;;;;;;4991202;28;20501;-75
2022/07/16 05:49:24;;;;;;;10.55;3.10;;;;;;;;;;4991464;28;20026;-74
2022/07/16 05:51:49;;;;;;;5.75;2.88;;;;;;;;;;4991121;28;20402;-74
2022/07/16 05:54:15;;;;;;;5.50;2.90;;;;;;;;;;4991240;28;20030;-75
2022/07/16 05:56:40;;;;;;;4.90;2.60;;;;;;;;;;4973411;28;20133;-75
2022/07/16 05:59:05;;;;;;;4.28;2.60;;;;;;;;;;4991063;28;20054;-75
2022/07/16 06:01:32;;;;;;;5.53;2.90;;;;;;;;;;4973605;28;20527;-74
2022/07/16 06:03:57;;;;;;;8.00;3.10;;;;;;;;;;4990598;28;20035;-75
2022/07/16 06:06:23;;;;;;;5.57;3.15;;;;;;;;;;4991015;28;20462;-74
2022/07/16 06:08:48;;;;;;;6.07;3.80;;;;;;;;;;4990739;28;20054;-74
2022/07/16 06:11:14;;;;;;;5.00;3.88;;;;;;;;;;4990781;28;20034;-74
2022/07/16 06:13:39;;;;;;;6.50;3.78;;;;;;;;;;4990983;28;20038;-77
2022/07/16 06:16:07;;;;;;;5.53;4.22;;;;;;;;;;4991051;28;20598;-76
2022/07/16 06:18:33;;;;;;;7.15;4.38;;;;;;;;;;4990869;28;20525;-77
2022/07/16 06:20:58;;;;;;;7.57;4.53;;;;;;;;;;4990844;28;20041;-78
2022/07/16 06:23:23;;;;;;;7.75;4.50;;;;;;;;;;4990835;28;20026;-77
2022/07/16 06:25:49;;;;;;;8.07;4.72;;;;;;;;;;4990683;28;20030;-76
2022/07/16 06:28:14;;;;;;;9.02;4.80;;;;;;;;;;4990586;28;20030;-79
2022/07/16 06:30:40;;;;;;;10.23;4.68;;;;;;;;;;4990561;28;20434;-78
2022/07/16 06:33:05;;;;;;;7.95;5.50;;;;;;;;;;4990856;28;20048;-78
2022/07/16 06:35:31;;;;;;;12.05;5.22;;;;;;;;;;4990591;28;20034;-78
2022/07/16 06:37:56;;;;;;;13.65;6.30;;;;;;;;;;4990684;28;20038;-79
2022/07/16 06:40:22;;;;;;;10.35;5.82;;;;;;;;;;4990667;28;20023;-79
2022/07/16 06:42:47;;;;;;;10.35;6.20;;;;;;;;;;4990665;28;20442;-79
2022/07/16 06:45:12;;;;;;;6.82;5.78;;;;;;;;;;4990599;28;20479;-79
2022/07/16 06:47:38;;;;;;;10.70;5.90;;;;;;;;;;4972925;28;20022;-78
2022/07/16 06:50:04;;;;;;;10.32;6.00;;;;;;;;;;4990749;28;20101;-78
2022/07/16 06:52:30;;;;;;;8.88;5.65;;;;;;;;;;4990429;28;20109;-79
2022/07/16 06:54:55;;;;;;;8.88;6.45;;;;;;;;;;4990744;28;20089;-79
2022/07/16 06:57:22;;;;;;;11.88;7.28;;;;;;;;;;4990289;28;20046;-79
2022/07/16 06:59:47;;;;;;;9.52;7.30;;;;;;;;;;4990205;28;20558;-80
2022/07/16 07:02:13;;;;;;;14.77;10.63;;;;;;;;;;4990457;28;20142;-79
2022/07/16 07:04:39;;;;;;;13.55;11.18;;;;;;;;;;4990450;28;20030;-78
2022/07/16 07:07:05;;;;;;;14.13;11.20;;;;;;;;;;4990076;28;20034;-78
2022/07/16 07:09:30;;;;;;;15.90;11.70;;;;;;;;;;4990982;28;20027;-80
2022/07/16 07:11:55;;;;;;;15.18;12.05;;;;;;;;;;4990646;28;20019;-77
2022/07/16 07:14:21;;;;;;;18.73;11.65;;;;;;;;;;4990537;28;20045;-79
2022/07/16 07:16:46;;;;;;;15.43;11.65;;;;;;;;;;4992960;28;20033;-78
2022/07/16 07:19:12;;;;;;;15.40;11.43;;;;;;;;;;4994115;28;20159;-78
2022/07/16 07:21:37;;;;;;;13.70;11.50;;;;;;;;;;4994068;28;20030;-77
2022/07/16 07:24:03;;;;;;;15.07;11.13;;;;;;;;;;4994197;28;20109;-77
2022/07/16 07:26:28;;;;;;;14.00;11.05;;;;;;;;;;4993963;28;20050;-79
2022/07/16 07:28:54;;;;;;;15.02;11.02;;;;;;;;;;4994033;28;20030;-78
2022/07/16 07:31:19;;;;;;;16.75;10.95;;;;;;;;;;4993911;28;20030;-77
2022/07/16 07:33:44;;;;;;;15.27;11.18;;;;;;;;;;4993939;28;20509;-78
2022/07/16 07:36:10;;;;;;;15.52;11.73;;;;;;;;;;4993808;28;20130;-78
2022/07/16 07:38:36;;;;;;;15.38;11.80;;;;;;;;;;4993588;28;20030;-78
2022/07/16 07:41:02;;;;;;;16.77;11.73;;;;;;;;;;4993977;28;20057;-78
2022/07/16 07:43:27;;;;;;;17.05;11.70;;;;;;;;;;4993871;28;20022;-77
2022/07/16 07:45:53;;;;;;;16.98;11.38;;;;;;;;;;4993928;28;20177;-78
2022/07/16 07:48:18;;;;;;;13.52;11.00;;;;;;;;;;4993372;28;20026;-78
2022/07/16 07:50:44;;;;;;;14.52;11.32;;;;;;;;;;4993878;28;20085;-75
2022/07/16 07:53:10;;;;;;;15.68;11.15;;;;;;;;;;4993573;28;20088;-78
2022/07/16 07:55:36;;;;;;;15.68;10.98;;;;;;;;;;4993491;28;20037;-78
2022/07/16 07:58:03;;;;;;;13.00;10.52;;;;;;;;;;4992795;28;20573;-79
2022/07/16 08:00:28;;;;;;;15.27;10.40;;;;;;;;;;4993513;28;20483;-78
2022/07/16 08:02:56;;;;;;;13.15;10.50;;;;;;;;;;4993326;28;20046;-78
2022/07/16 08:05:21;;;;;;;17.02;11.05;;;;;;;;;;4993577;28;20034;-79
2022/07/16 08:07:47;;;;;;;19.85;10.70;;;;;;;;;;4993004;28;20046;-78
2022/07/16 08:10:13;;;;;;;13.75;9.95;;;;;;;;;;4993411;28;20391;-78
2022/07/16 08:12:39;;;;;;;15.65;10.73;;;;;;;;;;4993160;28;20586;-78
2022/07/16 08:15:06;;;;;;;10.98;9.60;;;;;;;;;;4975591;28;20039;-77
2022/07/16 08:17:31;;;;;;;11.35;9.65;;;;;;;;;;4992765;28;20126;-77
2022/07/16 08:19:57;;;;;;;12.32;9.35;;;;;;;;;;4993442;28;20117;-78
2022/07/16 08:22:22;;;;;;;11.73;9.40;;;;;;;;;;4992767;28;20026;-75
2022/07/16 08:27:32;;;;;;;11.13;9.15;;;;;;;;;;4991924;28;20114;-75
2022/07/16 08:29:57;;;;;;;15.88;9.10;;;;;;;;;;4992910;28;20472;-76
2022/07/16 08:32:22;;;;;;;10.18;8.75;;;;;;;;;;4992614;28;20475;-73
2022/07/16 08:34:48;;;;;;;13.25;9.13;;;;;;;;;;4992944;28;20031;-73
2022/07/16 08:37:13;;;;;;;13.75;9.45;;;;;;;;;;4975060;28;20033;-73
2022/07/16 08:39:43;;;;;;;15.20;9.18;;;;;;;;;;4992811;28;20638;-78
2022/07/16 08:42:12;;;;;;;11.65;9.30;;;;;;;;;;4992866;28;20033;-73
2022/07/16 08:44:40;;;;;;;13.50;10.43;;;;;;;;;;4992753;28;20433;-76
2022/07/16 08:47:09;;;;;;;12.82;10.07;;;;;;;;;;4992436;28;20685;-76
2022/07/16 08:49:37;;;;;;;16.27;9.95;;;;;;;;;;4992494;28;20027;-75
2022/07/16 08:52:05;;;;;;;13.70;10.98;;;;;;;;;;4992252;28;20029;-76
2022/07/16 08:54:31;;;;;;;14.43;10.13;;;;;;;;;;4992480;28;20034;-77
2022/07/16 08:56:58;;;;;;;14.00;9.88;;;;;;;;;;4992416;28;20084;-76
2022/07/16 08:59:26;;;;;;;14.00;9.82;;;;;;;;;;4992086;28;20108;-75
2022/07/16 09:01:51;;;;;;;13.40;10.63;;;;;;;;;;4992316;28;20030;-77
2022/07/16 09:04:17;;;;;;;15.43;11.13;;;;;;;;;;4992275;28;20556;-75
2022/07/16 09:06:42;;;;;;;13.57;10.60;;;;;;;;;;4992192;28;20026;-76
2022/07/16 09:09:08;;;;;;;13.98;10.50;;;;;;;;;;4991692;28;20073;-77
2022/07/16 09:11:35;;;;;;;11.82;10.05;;;;;;;;;;4992111;28;20066;-77
2022/07/16 09:14:08;;;;;;;13.75;10.98;;;;;;;;;;4992348;28;20022;-75
2022/07/16 09:16:38;;;;;;;15.63;10.80;;;;;;;;;;4991985;28;20018;-78
2022/07/16 09:19:06;;;;;;;;;;;;;;;;;;4992183;28;20029;-78
2022/07/16 09:21:33;;;;;;;16.27;11.18;;;;;;;;;;4991857;28;20333;-77
2022/07/16 09:23:58;;;;;;;13.35;9.65;;;;;;;;;;4991277;28;20035;-78
2022/07/16 09:26:26;;;;;;;11.77;10.00;;;;;;;;;;4991792;28;20441;-75
2022/07/16 09:28:52;;;;;;;12.35;9.75;;;;;;;;;;4991475;28;20044;-75
2022/07/16 09:31:34;;;;;;;12.88;9.55;;;;;;;;;;4991961;28;20034;-74
2022/07/16 09:34:12;;;;;;;15.48;9.70;;;;;;;;;;4991734;28;20026;-74
2022/07/16 09:36:39;;;;;;;9.25;7.35;;;;;;;;;;4992000;28;20077;-72
2022/07/16 09:39:06;;;;;;;12.50;7.78;;;;;;;;;;4991341;28;20027;-73
2022/07/16 09:41:46;;;;;;;13.73;9.35;;;;;;;;;;4991629;28;20031;-75
2022/07/16 09:44:23;;;;;;;13.93;9.30;;;;;;;;;;4991335;28;20509;-74
2022/07/16 09:47:06;;;;;;;13.25;9.50;;;;;;;;;;4974138;28;20026;-74
2022/07/16 09:49:37;;;;;;;15.13;8.82;;;;;;;;;;4991292;28;20398;-73
2022/07/16 09:52:08;;;;;;;11.50;7.90;;;;;;;;;;4991465;28;20493;-73
2022/07/16 09:54:38;;;;;;;10.38;7.00;;;;;;;;;;4991296;28;20031;-73
2022/07/16 09:57:18;;;;;;;9.30;7.05;;;;;;;;;;4991614;28;20097;-71
2022/07/16 09:59:46;;;;;;;9.93;6.43;;;;;;;;;;4990786;28;20069;-71
2022/07/16 10:02:12;;;;;;;8.32;6.50;;;;;;;;;;4991103;28;20376;-72
2022/07/16 10:04:38;;;;;;;9.65;5.78;;;;;;;;;;4991110;28;20034;-74
2022/07/16 10:07:04;;;;;;;7.80;5.25;;;;;;;;;;4991309;28;20030;-73
2022/07/16 10:09:30;;;;;;;8.35;6.00;;;;;;;;;;4991005;28;20034;-73
2022/07/16 10:12:01;;;;;;;8.13;4.80;;;;;;;;;;4991237;28;20019;-73
2022/07/16 10:14:27;;;;;;;7.22;4.68;;;;;;;;;;4990956;28;20088;-73
2022/07/16 10:16:59;;;;;;;10.55;5.78;;;;;;;;;;4973488;28;20030;-73
2022/07/16 10:19:34;;;;;;;6.88;5.80;;;;;;;;;;4990663;28;20037;-73
2022/07/16 10:22:16;;;;;;;8.25;5.70;;;;;;;;;;4990943;28;20026;-74
2022/07/16 10:24:53;;;;;;;8.50;5.82;;;;;;;;;;4990845;28;20088;-73
2022/07/16 10:27:34;;;;;;;6.68;5.78;;;;;;;;;;4991366;28;20030;-72
2022/07/16 10:30:23;;;;;;;9.63;5.43;;;;;;;;;;4990737;28;20394;-73
2022/07/16 10:33:05;;;;;;;5.85;5.05;;;;;;;;;;4990722;28;20030;-75
2022/07/16 10:35:34;;;;;;;8.48;4.97;;;;;;;;;;4990642;28;20030;-73
2022/07/16 10:38:24;;;;;;;7.07;4.93;;;;;;;;;;4990406;28;20030;-73
2022/07/16 10:41:20;;;;;;;7.55;4.20;;;;;;;;;;4990929;28;20280;-73
2022/07/16 10:44:08;;;;;;;5.70;3.85;;;;;;;;;;4990761;28;20034;-78
2022/07/16 10:46:34;;;;;;;5.28;3.80;;;;;;;;;;4990886;28;20046;-75
2022/07/16 10:48:59;;;;;;;5.97;3.53;;;;;;;;;;4990406;28;20069;-77
2022/07/16 10:51:25;;;;;;;4.78;3.13;;;;;;;;;;4990150;28;20058;-77
2022/07/16 10:53:57;;;;;;;6.10;3.28;;;;;;;;;;4990377;28;20077;-76
2022/07/16 10:56:52;;;;;;;3.25;2.80;;;;;;;;;;4990646;28;20097;-77
2022/07/16 10:59:25;;;;;;;4.32;2.67;;;;;;;;;;4989424;28;20129;-76
2022/07/16 11:01:53;;;;;;;4.22;1.90;;;;;;;;;;4990589;28;20105;-77
2022/07/16 11:04:33;;;;;;;4.32;2.05;;;;;;;;;;4990423;28;20041;-76
2022/07/16 11:07:00;;;;;;;2.95;2.13;;;;;;;;;;4990529;28;20574;-78
2022/07/16 11:09:33;;;;;;;4.05;1.95;;;;;;;;;;4990198;28;20034;-78
2022/07/16 11:12:17;;;;;;;6.38;2.35;;;;;;;;;;4990489;28;20027;-78
2022/07/16 11:14:48;;;;;;;4.80;2.13;;;;;;;;;;4990145;28;20026;-77
2022/07/16 11:17:15;;;;;;;3.80;2.15;;;;;;;;;;4990501;28;20026;-78
2022/07/16 11:19:49;;;;;;;5.82;2.20;;;;;;;;;;4990303;28;20410;-76
2022/07/16 11:22:22;;;;;;;4.78;2.10;;;;;;;;;;4973087;28;20031;-78
2022/07/16 11:24:52;;;;;;;4.07;2.03;;;;;;;;;;4957097;28;20031;-78
2022/07/16 11:27:17;;;;;;;4.53;1.80;;;;;;;;;;4990750;28;20500;-77
2022/07/16 11:29:43;;;;;;;4.10;2.00;;;;;;;;;;4989906;28;20102;-78
2022/07/16 11:32:14;;;;;;;2.58;1.63;;;;;;;;;;4990342;28;20105;-78
2022/07/16 11:34:39;;;;;;;2.33;1.80;;;;;;;;;;4990512;28;20088;-78
2022/07/16 11:37:05;;;;;;;2.45;1.60;;;;;;;;;;4990437;28;20026;-78
2022/07/16 11:39:30;;;;;;;3.47;1.80;;;;;;;;;;4990133;28;20505;-78
2022/07/16 11:41:58;;;;;;;5.43;1.92;;;;;;;;;;4990652;28;20033;-77
2022/07/16 11:44:32;;;;;;;3.50;1.80;;;;;;;;;;4990023;28;20034;-75
2022/07/16 11:47:08;;;;;;;3.97;1.75;;;;;;;;;;4990203;28;20022;-76
2022/07/16 11:49:36;;;;;;;3.17;1.50;;;;;;;;;;4989657;28;20073;-76
2022/07/16 11:52:04;;;;;;;4.93;1.80;;;;;;;;;;4989993;28;20097;-76
2022/07/16 11:54:35;;;;;;;3.70;1.80;;;;;;;;;;4989930;28;20113;-77
2022/07/16 11:57:01;;;;;;;2.85;1.70;;;;;;;;;;4990385;28;20054;-77
2022/07/16 11:59:29;;;;;;;4.13;1.60;;;;;;;;;;4989551;28;20070;-78
2022/07/16 12:02:08;;;;;;;3.00;1.77;;;;;;;;;;4990120;28;20034;-75
2022/07/16 12:04:42;;;;;;;3.85;1.75;;;;;;;;;;4993239;28;20077;-75
2022/07/16 12:07:16;;;;;;;4.38;1.90;;;;;;;;;;4993348;28;20030;-76
2022/07/16 12:09:46;;;;;;;8.93;2.20;;;;;;;;;;4993178;28;20069;-75
2022/07/16 12:12:13;;;;;;;3.20;1.80;;;;;;;;;;4993446;28;20046;-76
2022/07/16 12:14:42;;;;;;;3.95;1.92;;;;;;;;;;4993186;28;20026;-77
2022/07/16 12:17:37;;;;;;;2.90;1.65;;;;;;;;;;4993454;28;20030;-77
2022/07/16 12:20:15;;;;;;;3.55;1.92;;;;;;;;;;4992515;28;20062;-77
2022/07/16 12:22:50;;;;;;;3.22;1.77;;;;;;;;;;4993009;28;20048;-76
2022/07/16 12:25:36;;;;;;;3.70;1.95;;;;;;;;;;4992753;28;20574;-75
2022/07/16 12:28:06;;;;;;;2.78;1.90;;;;;;;;;;4993196;28;20022;-75
2022/07/16 12:30:40;;;;;;;2.92;1.70;;;;;;;;;;4992814;28;20034;-75
2022/07/16 12:33:24;;;;;;;4.18;1.80;;;;;;;;;;4993143;28;20109;-73
2022/07/16 12:35:55;;;;;;;2.28;1.52;;;;;;;;;;4992791;28;20061;-74
2022/07/16 12:38:49;;;;;;;3.17;1.70;;;;;;;;;;4975481;28;20054;-72
2022/07/16 12:41:27;;;;;;;2.47;1.60;;;;;;;;;;4992377;28;20506;-75
2022/07/16 12:43:59;;;;;;;3.10;1.50;;;;;;;;;;4992728;28;20022;-76
2022/07/16 12:46:31;;;;;;;4.30;1.63;;;;;;;;;;4992503;28;20121;-76
2022/07/16 12:49:03;;;;;;;2.72;1.70;;;;;;;;;;4992804;28;20063;-76
2022/07/16 12:51:32;;;;;;;4.00;1.52;;;;;;;;;;4992483;28;20065;-76
2022/07/16 12:53:58;;;;;;;3.50;1.48;;;;;;;;;;4992601;28;20054;-75
2022/07/16 12:59:09;;;;;;;4.15;1.55;;;;;;;;;;4992104;28;20528;-76
2022/07/16 13:01:35;;;;;;;3.25;1.40;;;;;;;;;;4992242;28;20101;-76
2022/07/16 13:04:03;;;;;;;2.78;1.63;;;;;;;;;;4992745;28;20014;-76
2022/07/16 13:06:29;;;;;;;2.67;1.48;;;;;;;;;;4992272;28;20546;-74
2022/07/16 13:08:56;;;;;;;2.83;1.60;;;;;;;;;;4992306;28;20030;-74
2022/07/16 13:11:22;;;;;;;4.45;1.35;;;;;;;;;;4992066;28;20053;-75
2022/07/16 13:13:50;;;;;;;2.55;1.40;;;;;;;;;;4991789;28;20035;-72
2022/07/16 13:16:20;;;;;;;2.97;1.50;;;;;;;;;;4991969;28;20026;-75
2022/07/16 13:18:46;;;;;;;1.95;1.30;;;;;;;;;;4992118;28;20036;-73
2022/07/16 13:21:12;;;;;;;2.10;1.40;;;;;;;;;;4991676;28;20022;-73
2022/07/16 13:23:38;;;;;;;4.50;1.30;;;;;;;;;;4991878;28;20487;-73
2022/07/16 13:26:04;;;;;;;2.53;1.13;;;;;;;;;;4991937;28;20030;-73
2022/07/16 13:28:30;;;;;;;1.85;1.17;;;;;;;;;;4992101;28;20053;-75
2022/07/16 13:30:55;;;;;;;3.67;1.10;;;;;;;;;;4991675;28;20029;-76
2022/07/16 13:33:21;;;;;;;3.70;1.00;;;;;;;;;;4974430;28;20030;-76
2022/07/16 13:35:47;;;;;;;1.55;1.00;;;;;;;;;;4991456;28;20103;-73
2022/07/16 13:38:12;;;;;;;3.45;0.90;;;;;;;;;;4991482;28;20064;-73
2022/07/16 13:40:38;;;;;;;3.10;1.20;;;;;;;;;;4973911;28;20034;-73
2022/07/16 13:43:04;;;;;;;1.98;1.02;;;;;;;;;;4991757;28;20041;-74
2022/07/16 13:45:30;;;;;;;1.10;0.80;;;;;;;;;;4991478;28;20042;-73
2022/07/16 13:47:56;;;;;;;0.98;0.80;;;;;;;;;;4991751;28;20030;-74
2022/07/16 13:50:22;;;;;;;4.75;1.20;;;;;;;;;;4991072;28;20058;-73
2022/07/16 13:52:47;;;;;;;2.95;1.27;;;;;;;;;;4991301;28;20026;-72
2022/07/16 13:55:13;;;;;;;2.15;1.10;;;;;;;;;;4991177;28;20050;-72
2022/07/16 14:00:25;;;;;;;1.10;0.90;;;;;;;;;;4991255;28;20441;-73
2022/07/16 14:02:51;;;;;;;1.65;1.10;;;;;;;;;;4991594;28;20038;-74
2022/07/16 14:05:17;;;;;;;1.20;0.90;;;;;;;;;;4991169;28;20046;-72
2022/07/16 14:07:43;;;;;;;2.08;1.20;;;;;;;;;;4991295;28;20026;-72
2022/07/16 14:10:10;;;;;;;1.13;1.00;;;;;;;;;;4990988;28;20691;-72
2022/07/16 14:12:35;;;;;;;1.52;1.10;;;;;;;;;;4991030;28;20057;-71
2022/07/16 14:15:01;;;;;;;1.70;1.00;;;;;;;;;;4991178;28;20062;-75
2022/07/16 14:17:26;;;;;;;1.95;1.10;;;;;;;;;;4990972;28;20080;-74
2022/07/16 14:19:52;;;;;;;1.95;0.90;;;;;;;;;;4991085;28;20031;-73
2022/07/16 14:22:17;;;;;;;3.33;1.02;;;;;;;;;;4990828;28;20034;-73
2022/07/16 14:24:43;;;;;;;1.67;1.00;;;;;;;;;;4990672;28;20038;-72
2022/07/16 14:27:08;;;;;;;1.20;1.00;;;;;;;;;;4990499;28;20038;-73
2022/07/16 14:29:34;;;;;;;0.77;0.70;;;;;;;;;;4990815;28;20032;-73
2022/07/16 14:32:00;;;;;;;1.15;0.90;;;;;;;;;;4990486;28;20030;-73
2022/07/16 14:34:25;;;;;;;3.30;0.90;;;;;;;;;;4990639;28;20053;-73
2022/07/16 14:36:52;;;;;;;1.15;0.90;;;;;;;;;;4990739;28;20028;-72
2022/07/16 14:39:17;;;;;;;1.00;0.80;;;;;;;;;;4990895;28;20034;-73
2022/07/16 14:41:43;;;;;;;1.63;0.93;;;;;;;;;;4990417;28;20034;-73
2022/07/16 14:44:09;;;;;;;1.17;0.68;;;;;;;;;;4990776;28;20023;-75
2022/07/16 14:46:35;;;;;;;0.80;0.65;;;;;;;;;;4990377;28;20097;-72
2022/07/16 14:49:00;;;;;;;0.90;0.63;;;;;;;;;;4990695;28;20606;-73
2022/07/16 14:51:25;;;;;;;1.27;0.80;;;;;;;;;;4972511;28;20037;-74
2022/07/16 14:53:51;;;;;;;0.65;0.65;;;;;;;;;;4973147;28;20494;-73